Latest Weather Observations for kunanyi / Mount Wellington

IDT60801

Issued at 8:02 am EST Friday 29 July 2016 (issued every 30 minutes, with the page automatically refreshed every 10 minutes)

About weather observations | Map of weather stations | Latest weather observations for TAS | Other Formats
Station Details ID: 094087 Name: KUNANYI (MOUNT WELLINGTON PINNACLE) Lat: -42.90 Lon: 147.24 Height: 1260.47 m
Data from the previous 72 hours. | See also: Recent months at kunanyi / Mount Wellington
Date/Time
EST
Temp
°C
App
Temp
°C
Dew
Point
°C
Rel
Hum
%
Delta-T
°C
Wind Press
QNH
hPa
Press
MSL
hPa
Rain since
9am
mm
Dir  Spd
km/h
Gust
km/h
Spd
kts
Gust
kts
29/08:00am 1.1 -13.1 0.8 98 0.1 W 65 83 35 45 - - 0.2
29/07:30am 0.9 -12.6 0.6 98 0.1 W 61 82 33 44 - - 0.2
29/07:00am 1.1 -13.1 0.7 97 0.2 W 65 89 35 48 - - 0.2
29/06:30am 1.1 -14.5 0.7 97 0.2 W 72 115 39 62 - - 0.2
29/06:23am 1.2 -14.3 0.8 97 0.2 W 72 115 39 62 - - 0.2
29/06:00am 0.7 -14.3 0.4 98 0.1 W 69 87 37 47 - - 0.0
29/05:30am 0.7 -14.6 0.1 96 0.2 W 70 98 38 53 - - 0.0
29/05:02am 0.8 -13.9 0.4 97 0.2 W 67 85 36 46 - - 0.0
29/05:00am 0.8 -14.2 0.4 97 0.2 W 69 85 37 46 - - 0.0
29/04:30am 0.9 -15.1 0.6 98 0.1 W 74 93 40 50 - - 0.0
29/04:00am 0.8 -15.6 0.4 97 0.2 W 76 96 41 52 - - 0.0
29/03:30am 0.6 -16.9 0.2 97 0.2 W 82 111 44 60 - - 0.0
29/03:22am 0.7 -16.4 0.3 97 0.2 W 80 111 43 60 - - 0.0
29/03:00am 0.7 -14.3 0.3 97 0.2 W 69 89 37 48 - - 0.0
29/02:30am 0.7 -12.8 0.3 97 0.2 W 61 87 33 47 - - 0.0
29/02:00am 0.9 -13.8 0.2 95 0.3 W 67 93 36 50 - - 0.0
29/01:30am 0.6 -13.4 -0.1 95 0.3 W 63 83 34 45 - - 0.0
29/01:06am 0.5 -14.2 -0.1 96 0.2 W 67 91 36 49 - - 0.0
29/01:00am 0.5 -14.2 0.1 97 0.2 W 67 83 36 45 - - 0.0
29/12:30am 0.6 -14.1 0.2 97 0.2 W 67 87 36 47 - - 0.0
29/12:00am 0.9 -13.9 -0.7 89 0.6 W 67 96 36 52 - - 0.0
 
Date/Time
EST
Temp
°C
App
Temp
°C
Dew
Point
°C
Rel
Hum
%
Delta-T
°C
Wind Press
QNH
hPa
Press
MSL
hPa
Rain since
9am
mm
Dir  Spd
km/h
Gust
km/h
Spd
kts
Gust
kts
28/11:30pm 0.7 -14.4 -0.2 94 0.4 W 69 102 37 55 - - 0.0
28/11:00pm 0.6 -14.2 -0.5 92 0.4 W 67 85 36 46 - - 0.0
28/10:30pm 0.5 -16.3 -0.2 95 0.3 W 78 102 42 55 - - 0.0
28/10:02pm 0.6 -15.1 -0.4 93 0.4 W 72 91 39 49 - - 0.0
28/10:00pm 0.6 -15.5 -0.4 93 0.4 W 74 91 40 49 - - 0.0
28/09:30pm 0.3 -15.8 -0.4 95 0.3 W 74 98 40 53 - - 0.0
28/09:14pm 0.4 -15.0 -0.6 93 0.4 W 70 89 38 48 - - 0.0
28/09:00pm 0.5 -14.8 -0.1 96 0.2 W 70 85 38 46 - - 0.0
28/08:30pm 0.6 -14.1 0.0 96 0.2 WSW 67 87 36 47 - - 0.0
28/08:04pm 0.7 -13.6 0.0 95 0.3 WSW 65 85 35 46 - - 0.0
28/08:00pm 0.7 -14.4 0.1 96 0.2 WSW 69 87 37 47 - - 0.0
28/07:30pm 0.6 -15.5 -0.1 95 0.3 WSW 74 93 40 50 - - 0.0
28/07:00pm 0.6 -15.9 -0.5 92 0.4 W 76 96 41 52 - - 0.0
28/06:35pm 0.6 -14.7 -0.3 94 0.4 WSW 70 91 38 49 - - 0.0
28/06:30pm 0.6 -14.7 -0.3 94 0.4 WSW 70 89 38 48 - - 0.0
28/06:15pm 0.5 -14.7 -0.5 93 0.4 WSW 69 89 37 48 - - 0.0
28/06:00pm 0.5 -14.7 -0.9 90 0.6 WSW 69 87 37 47 - - 0.0
28/05:40pm 0.4 -14.5 -1.0 90 0.6 WSW 67 87 36 47 - - 0.0
28/05:30pm 0.5 -14.9 -0.8 91 0.5 WSW 70 82 38 44 - - 0.0
28/05:04pm 0.6 -16.7 -0.5 92 0.4 WSW 80 98 43 53 - - 0.0
28/05:00pm 0.5 -16.0 -0.6 92 0.4 WSW 76 91 41 49 - - 0.0
28/04:30pm 0.7 -16.5 -0.4 92 0.4 WSW 80 93 43 50 - - 0.0
28/04:06pm 1.1 -15.7 -0.2 91 0.5 WSW 78 98 42 53 - - 0.0
28/04:00pm 1.2 -16.0 0.0 92 0.5 WSW 80 98 43 53 - - 0.0
28/03:30pm 1.6 -12.6 0.6 93 0.4 WSW 65 89 35 48 - - 0.0
28/03:00pm 1.7 -12.9 1.0 95 0.3 W 67 87 36 47 - - 0.0
28/02:30pm 1.8 -14.5 0.8 93 0.4 W 76 96 41 52 - - 0.0
28/02:01pm 2.0 -15.5 0.7 91 0.5 W 82 100 44 54 - - 0.0
28/02:00pm 2.0 -15.6 0.7 91 0.5 W 83 100 45 54 - - 0.0
28/01:30pm 1.9 -17.3 0.6 91 0.5 WSW 91 115 49 62 - - 0.0
28/01:00pm 1.9 -16.1 1.0 94 0.4 W 85 104 46 56 - - 0.0
28/12:30pm 1.9 -16.5 1.0 94 0.4 WSW 87 107 47 58 - - 0.0
28/12:00pm 2.5 -15.1 0.9 89 0.7 W 83 113 45 61 - - 0.0
28/11:30am 2.3 -15.0 1.4 94 0.4 W 82 109 44 59 - - 0.0
28/11:04am 2.0 -14.6 1.6 97 0.2 W 78 96 42 52 - - 0.0
28/11:00am 2.0 -14.6 1.4 96 0.2 WSW 78 95 42 51 - - 0.0
28/10:30am 2.1 -15.2 1.7 97 0.2 W 82 106 44 57 - - 0.0
28/10:00am 1.7 -15.3 1.4 98 0.1 W 80 106 43 57 - - 0.0
28/09:30am 1.6 -15.7 1.5 99 0.0 WSW 82 106 44 57 - - 0.0
28/09:00am 1.4 -15.2 1.3 99 0.0 WSW 78 111 42 60 - - 0.2
28/08:30am 1.2 -16.4 1.1 99 0.0 WSW 83 107 45 58 - - 0.2
28/08:00am 1.2 -16.8 1.1 99 0.0 W 85 111 46 60 - - 0.2
28/07:30am 1.1 -17.6 1.0 99 0.0 W 89 115 48 62 - - 0.2
28/07:00am 0.8 -18.7 0.7 99 0.0 W 93 120 50 65 - - 0.2
28/06:30am 0.6 -18.2 0.5 99 0.0 W 89 111 48 60 - - 0.2
28/06:00am 0.4 -16.0 0.3 99 0.0 W 76 102 41 55 - - 0.2
28/05:30am 0.2 -15.8 0.1 99 0.0 W 74 106 40 57 - - 0.2
28/05:00am 0.3 -18.2 0.2 99 0.0 W 87 109 47 59 - - 0.2
28/04:30am 0.1 -18.0 0.0 99 0.0 W 85 109 46 59 - - 0.2
28/04:00am 0.3 -17.2 0.2 99 0.0 W 82 106 44 57 - - 0.2
28/03:30am -0.1 -15.4 -0.2 99 0.0 W 70 100 38 54 - - 0.2
28/03:06am -0.1 -14.8 -0.2 99 0.0 W 67 85 36 46 - - 0.2
28/03:00am 0.0 -14.7 -0.1 99 0.0 W 67 80 36 43 - - 0.2
28/02:34am 0.1 -13.9 -0.2 98 0.1 W 63 83 34 45 - - 0.2
28/02:30am 0.1 -14.3 -0.2 98 0.1 W 65 82 35 44 - - 0.2
28/02:14am 0.0 -12.3 -0.3 98 0.1 W 54 74 29 40 - - 0.2
28/02:00am -0.2 -12.5 -0.5 98 0.1 W 54 72 29 39 - - 0.2
28/01:48am -0.1 -13.0 -0.4 98 0.1 WSW 57 76 31 41 - - 0.2
28/01:30am -0.1 -13.4 -0.4 98 0.1 W 59 74 32 40 - - 0.2
28/01:05am -0.3 -13.0 -0.6 98 0.1 WSW 56 76 30 41 - - 0.2
28/01:00am -0.3 -13.2 -0.6 98 0.1 WSW 57 76 31 41 - - 0.2
28/12:31am -0.3 -13.2 -0.6 98 0.1 W 57 80 31 43 - - 0.2
28/12:30am -0.3 -13.2 -0.6 98 0.1 W 57 74 31 40 - - 0.2
28/12:13am -0.4 -13.7 -0.7 98 0.1 WSW 59 78 32 42 - - 0.2
28/12:00am -0.4 -13.3 -0.7 98 0.1 WSW 57 72 31 39 - - 0.2
 
Date/Time
EST
Temp
°C
App
Temp
°C
Dew
Point
°C
Rel
Hum
%
Delta-T
°C
Wind Press
QNH
hPa
Press
MSL
hPa
Rain since
9am
mm
Dir  Spd
km/h
Gust
km/h
Spd
kts
Gust
kts
27/11:39pm -0.4 -14.1 -0.7 98 0.1 WSW 61 87 33 47 - - 0.2
27/11:36pm -0.4 -13.1 -0.7 98 0.1 WSW 56 87 30 47 - - 0.2
27/11:30pm -0.5 -11.0 -0.8 98 0.1 WSW 44 72 24 39 - - 0.2
27/11:00pm -0.7 -12.7 -1.0 98 0.1 WSW 52 72 28 39 - - 0.2
27/10:36pm -0.8 -13.6 -1.1 98 0.1 WSW 56 82 30 44 - - 0.2
27/10:30pm -0.7 -13.7 -1.0 98 0.1 WSW 57 72 31 39 - - 0.2
27/10:06pm -0.7 -13.7 -1.0 98 0.1 WSW 57 76 31 41 - - 0.2
27/10:00pm -0.8 -14.5 -1.1 98 0.1 WSW 61 76 33 41 - - 0.2
27/09:30pm -0.5 -14.9 -0.8 98 0.1 WSW 65 91 35 49 - - 0.2
27/09:03pm -0.3 -14.7 -0.6 98 0.1 WSW 65 83 35 45 - - 0.2
27/09:00pm -0.2 -15.0 -0.5 98 0.1 WSW 67 83 36 45 - - 0.2
27/08:32pm -0.2 -15.4 -0.5 98 0.1 WSW 69 87 37 47 - - 0.2
27/08:30pm -0.1 -14.9 -0.4 98 0.1 WSW 67 80 36 43 - - 0.2
27/08:00pm 0.0 -15.7 -0.3 98 0.1 WSW 72 93 39 50 - - 0.2
27/07:37pm 0.1 -13.9 -0.2 98 0.1 WSW 63 85 34 46 - - 0.2
27/07:33pm 0.1 -15.0 -0.2 98 0.1 WSW 69 95 37 51 - - 0.2
27/07:30pm 0.1 -16.0 -0.2 98 0.1 WSW 74 95 40 51 - - 0.2
27/07:00pm 0.1 -15.2 -0.2 98 0.1 WSW 70 96 38 52 - - 0.0
27/06:30pm 0.0 -13.2 -0.3 98 0.1 WSW 59 83 32 45 - - 0.0
27/06:17pm -0.2 -14.2 -0.5 98 0.1 WSW 63 85 34 46 - - 0.0
27/06:15pm -0.2 -15.0 -0.5 98 0.1 WSW 67 95 36 51 - - 0.0
27/06:02pm -0.1 -14.1 -0.5 97 0.2 W 63 104 34 56 - - 0.0
27/06:01pm -0.1 -13.7 -0.5 97 0.2 W 61 96 33 52 - - 0.0
27/06:00pm -0.1 -13.0 -0.5 97 0.2 W 57 89 31 48 - - 0.0
27/05:52pm -0.2 -12.5 -0.6 97 0.1 WNW 54 89 29 48 - - 0.0
27/05:44pm -0.9 -12.2 -1.3 97 0.1 WNW 48 70 26 38 - - 0.0
27/05:30pm -1.3 -11.9 -1.7 97 0.1 WNW 44 59 24 32 - - 0.0
27/05:28pm -1.3 -12.3 -1.7 97 0.1 WNW 46 65 25 35 - - 0.0
27/05:00pm -1.6 -14.5 -2.0 97 0.1 WNW 56 72 30 39 - - 0.0
27/04:51pm -1.7 -14.2 -2.1 97 0.1 WNW 54 72 29 39 - - 0.0
27/04:30pm -2.1 -13.6 -2.6 96 0.1 WNW 48 63 26 34 - - 0.0
27/04:00pm -2.4 -12.9 -2.9 96 0.1 WNW 43 57 23 31 - - 0.0
27/03:30pm -2.4 -11.8 -2.9 96 0.1 WNW 37 50 20 27 - - 0.0
27/03:00pm -2.5 -13.6 -3.0 96 0.1 W 46 59 25 32 - - 0.0
27/02:30pm -2.7 -15.4 -3.2 96 0.1 WNW 54 67 29 36 - - 0.0
27/02:00pm -2.8 -14.3 -3.3 96 0.0 WNW 48 63 26 34 - - 0.0
27/01:30pm -2.9 -13.1 -3.6 95 0.1 WNW 41 50 22 27 - - 0.0
27/01:00pm -3.1 -13.0 -3.8 95 0.1 WNW 39 50 21 27 - - 0.0
27/12:30pm -3.3 -12.4 -4.0 95 0.1 WNW 35 41 19 22 - - 0.0
27/12:00pm -3.7 -12.3 -4.4 95 0.1 WNW 32 37 17 20 - - 0.0
27/11:30am -3.8 -12.4 -4.5 95 0.1 WNW 32 37 17 20 - - 0.0
27/11:00am -3.5 -12.1 -4.2 95 0.1 WNW 32 37 17 20 - - 0.0
27/10:30am -4.0 -13.2 -4.8 94 0.1 WNW 35 44 19 24 - - 0.0
27/10:00am -4.3 -12.2 -5.1 94 0.1 WNW 28 32 15 17 - - 0.0
27/09:30am -4.2 -11.7 -5.0 94 0.1 WNW 26 35 14 19 - - 0.0
27/09:00am -4.7 -11.9 -5.5 94 0.1 WNW 24 30 13 16 - - 0.0
27/08:30am -4.3 -12.6 -5.1 94 0.1 WNW 30 35 16 19 - - 0.0
27/08:00am -4.2 -11.4 -5.0 94 0.1 WNW 24 30 13 16 - - 0.0
27/07:30am -4.3 -12.2 -5.1 94 0.1 WNW 28 33 15 18 - - 0.0
27/07:00am -4.3 -11.9 -5.1 94 0.1 WNW 26 32 14 17 - - 0.0
27/06:30am -4.3 -11.1 -5.1 94 0.1 WNW 22 28 12 15 - - 0.0
27/06:00am -4.0 -11.1 -4.7 95 0.1 WNW 24 33 13 18 - - 0.0
27/05:30am -4.2 -12.5 -4.9 95 0.1 WNW 30 41 16 22 - - 0.0
27/05:00am -4.0 -12.7 -4.7 95 0.1 WNW 32 39 17 21 - - 0.0
27/04:30am -3.5 -12.1 -4.2 95 0.1 WNW 32 39 17 21 - - 0.0
27/04:00am -3.2 -11.9 -3.7 96 0.0 WNW 33 43 18 23 - - 0.0
27/03:30am -2.9 -11.4 -3.4 96 0.0 WNW 32 39 17 21 - - 0.0
27/03:00am -2.2 -10.2 -2.6 97 0.0 WNW 30 35 16 19 - - 0.0
27/02:30am -1.6 -10.1 -2.0 97 0.1 WNW 33 46 18 25 - - 0.0
27/02:00am -1.5 -11.2 -1.9 97 0.1 WNW 39 46 21 25 - - 0.0
27/01:30am -1.4 -13.1 -1.8 97 0.1 WNW 50 65 27 35 - - 0.0
27/01:00am -1.6 -13.7 -2.0 97 0.1 WNW 52 67 28 36 - - 0.0
27/12:30am -1.4 -13.1 -1.8 97 0.1 NW 50 65 27 35 - - 0.0
27/12:00am -1.6 -13.7 -2.0 97 0.1 WNW 52 63 28 34 - - 0.0
 
Date/Time
EST
Temp
°C
App
Temp
°C
Dew
Point
°C
Rel
Hum
%
Delta-T
°C
Wind Press
QNH
hPa
Press
MSL
hPa
Rain since
9am
mm
Dir  Spd
km/h
Gust
km/h
Spd
kts
Gust
kts
26/11:30pm -1.7 -14.6 -2.1 97 0.1 NW 56 69 30 37 - - 0.0
26/11:00pm -2.0 -14.2 -2.4 97 0.0 WNW 52 72 28 39 - - 0.0
26/10:54pm -2.0 -14.2 -2.4 97 0.0 WNW 52 72 28 39 - - 0.0
26/10:30pm -2.2 -14.8 -2.7 96 0.1 NW 54 69 29 37 - - 0.0
26/10:09pm -2.3 -14.2 -2.8 96 0.1 WNW 50 69 27 37 - - 0.0
26/10:00pm -2.3 -14.9 -2.8 96 0.1 WNW 54 67 29 36 - - 0.0
26/09:43pm -2.5 -15.1 -3.0 96 0.1 WNW 54 74 29 40 - - 0.0
26/09:30pm -2.6 -14.9 -3.1 96 0.1 WNW 52 63 28 34 - - 0.0
26/09:00pm -2.9 -14.8 -3.4 96 0.0 WNW 50 59 27 32 - - 0.0
26/08:30pm -2.9 -16.0 -3.4 96 0.0 NW 56 65 30 35 - - 0.0
26/08:00pm -3.1 -15.4 -3.6 96 0.0 WNW 52 61 28 33 - - 0.0
26/07:30pm -3.1 -16.8 -3.6 96 0.0 WNW 59 69 32 37 - - 0.0
26/07:13pm -3.0 -15.7 -3.5 96 0.0 WNW 54 76 29 41 - - 0.0
26/07:00pm -3.2 -14.8 -3.7 96 0.0 WNW 48 57 26 31 - - 0.0
26/06:30pm -3.0 -15.3 -3.5 96 0.0 WNW 52 69 28 37 - - 0.0
26/06:08pm -3.0 -12.9 -3.5 96 0.0 WNW 39 59 21 32 - - 0.0
26/06:00pm -3.0 -13.6 -3.5 96 0.0 WNW 43 54 23 29 - - 0.0
26/05:30pm -3.1 -12.6 -3.6 96 0.0 WNW 37 48 20 26 - - 0.0
26/05:00pm -2.9 -12.0 -3.4 96 0.0 W 35 46 19 25 - - 0.0
26/04:30pm -2.8 -14.0 -3.3 96 0.0 W 46 65 25 35 - - 0.0
26/04:00pm -2.7 -15.4 -3.2 96 0.1 WNW 54 72 29 39 - - 0.0
26/03:32pm -2.6 -14.5 -3.1 96 0.1 WNW 50 69 27 37 - - 0.0
26/03:30pm -2.7 -15.0 -3.2 96 0.1 WNW 52 69 28 37 - - 0.0
26/03:00pm -2.7 -14.6 -3.2 96 0.1 WNW 50 70 27 38 - - 0.0
26/02:30pm -2.6 -17.0 -3.4 94 0.2 W 63 91 34 49 - - 0.0
26/02:00pm -2.6 -19.1 -3.3 95 0.1 W 74 100 40 54 - - 0.0
26/01:30pm -2.6 -18.2 -3.9 91 0.3 W 69 89 37 48 - - 0.0
26/01:00pm -2.6 -18.8 -3.9 91 0.3 W 72 93 39 50 - - 0.0
26/12:30pm -2.5 -19.8 -3.5 93 0.2 W 78 98 42 53 - - 0.0
26/12:00pm -2.9 -18.1 -3.7 94 0.1 W 67 89 36 48 - - 0.0
26/11:36am -3.0 -18.8 -4.0 93 0.2 W 70 96 38 52 - - 0.0
26/11:30am -2.8 -18.4 -3.8 93 0.2 W 69 85 37 46 - - 0.0
26/11:00am -3.0 -18.2 -3.8 94 0.1 W 67 109 36 59 - - 0.0
26/10:52am -3.1 -17.2 -3.9 94 0.1 W 61 109 33 59 - - 0.0
26/10:30am -3.5 -18.0 -4.5 93 0.2 W 63 91 34 49 - - 0.0
26/10:00am -3.9 -19.2 -4.9 93 0.2 W 67 91 36 49 - - 0.0
26/09:30am -3.9 -19.2 -4.9 93 0.2 W 67 95 36 51 - - 0.0
26/09:03am -4.1 -17.6 -5.2 92 0.2 W 57 93 31 50 - - 0.0
26/09:02am -4.1 -17.4 -5.2 92 0.2 W 56 93 30 50 - - 0.0
26/09:00am -4.1 -16.2 -5.1 93 0.2 W 50 83 27 45 - - 0.6
26/08:32am -4.0 -17.8 -4.8 94 0.1 W 59 107 32 58 - - 0.6
26/08:30am -4.0 -17.2 -4.8 94 0.1 W 56 74 30 40 - - 0.6

Other Formats:

Comma delimited format used in spreadsheet applications
http://www.bom.gov.au/fwo/IDT60801/IDT60801.95979.axf

JavaScript Object Notation format (JSON) in row-major order
http://www.bom.gov.au/fwo/IDT60801/IDT60801.95979.json